sensor_id;sensor_type;location;lat;lon;timestamp;temperature;humidity
8537;DHT22;4306;50.210;10.628;2023-06-14T00:01:47;15.20;73.30
8537;DHT22;4306;50.210;10.628;2023-06-14T00:04:15;15.10;73.60
8537;DHT22;4306;50.210;10.628;2023-06-14T00:06:43;15.00;73.30
8537;DHT22;4306;50.210;10.628;2023-06-14T00:09:10;15.10;73.30
8537;DHT22;4306;50.210;10.628;2023-06-14T00:11:39;14.80;74.90
8537;DHT22;4306;50.210;10.628;2023-06-14T00:14:06;14.70;75.40
8537;DHT22;4306;50.210;10.628;2023-06-14T00:16:33;14.70;75.70
8537;DHT22;4306;50.210;10.628;2023-06-14T00:19:00;14.60;76.30
8537;DHT22;4306;50.210;10.628;2023-06-14T00:21:29;14.50;76.60
8537;DHT22;4306;50.210;10.628;2023-06-14T00:23:56;14.50;76.30
8537;DHT22;4306;50.210;10.628;2023-06-14T00:26:22;14.60;75.90
8537;DHT22;4306;50.210;10.628;2023-06-14T00:28:52;14.60;76.10
8537;DHT22;4306;50.210;10.628;2023-06-14T00:31:19;14.70;75.70
8537;DHT22;4306;50.210;10.628;2023-06-14T00:33:46;14.70;75.00
8537;DHT22;4306;50.210;10.628;2023-06-14T00:36:13;14.80;74.80
8537;DHT22;4306;50.210;10.628;2023-06-14T00:38:40;14.80;75.10
8537;DHT22;4306;50.210;10.628;2023-06-14T00:41:07;14.80;74.80
8537;DHT22;4306;50.210;10.628;2023-06-14T00:43:33;14.70;76.30
8537;DHT22;4306;50.210;10.628;2023-06-14T00:46:02;14.40;77.90
8537;DHT22;4306;50.210;10.628;2023-06-14T00:48:29;14.30;77.90
8537;DHT22;4306;50.210;10.628;2023-06-14T00:50:58;14.40;76.90
8537;DHT22;4306;50.210;10.628;2023-06-14T00:53:28;14.20;78.70
8537;DHT22;4306;50.210;10.628;2023-06-14T00:55:55;14.30;76.90
8537;DHT22;4306;50.210;10.628;2023-06-14T00:58:22;14.40;76.80
8537;DHT22;4306;50.210;10.628;2023-06-14T01:00:49;14.40;77.20
8537;DHT22;4306;50.210;10.628;2023-06-14T01:03:18;14.30;78.50
8537;DHT22;4306;50.210;10.628;2023-06-14T01:05:47;14.00;79.20
8537;DHT22;4306;50.210;10.628;2023-06-14T01:08:21;14.10;79.10
8537;DHT22;4306;50.210;10.628;2023-06-14T01:10:53;14.00;79.30
8537;DHT22;4306;50.210;10.628;2023-06-14T01:13:25;14.00;79.60
8537;DHT22;4306;50.210;10.628;2023-06-14T01:15:54;13.80;79.70
8537;DHT22;4306;50.210;10.628;2023-06-14T01:18:23;13.80;80.00
8537;DHT22;4306;50.210;10.628;2023-06-14T01:20:51;13.90;79.30
8537;DHT22;4306;50.210;10.628;2023-06-14T01:23:22;14.00;79.00
8537;DHT22;4306;50.210;10.628;2023-06-14T01:25:50;14.00;79.50
8537;DHT22;4306;50.210;10.628;2023-06-14T01:28:19;14.00;78.70
8537;DHT22;4306;50.210;10.628;2023-06-14T01:30:49;14.00;79.40
8537;DHT22;4306;50.210;10.628;2023-06-14T01:33:19;14.00;78.50
8537;DHT22;4306;50.210;10.628;2023-06-14T01:35:49;14.00;79.00
8537;DHT22;4306;50.210;10.628;2023-06-14T01:38:17;14.00;78.80
8537;DHT22;4306;50.210;10.628;2023-06-14T01:40:48;13.90;78.80
8537;DHT22;4306;50.210;10.628;2023-06-14T01:43:16;13.80;79.40
8537;DHT22;4306;50.210;10.628;2023-06-14T01:45:46;13.70;79.80
8537;DHT22;4306;50.210;10.628;2023-06-14T01:48:14;13.60;80.00
8537;DHT22;4306;50.210;10.628;2023-06-14T01:50:41;13.60;81.00
8537;DHT22;4306;50.210;10.628;2023-06-14T01:53:10;13.50;82.30
8537;DHT22;4306;50.210;10.628;2023-06-14T01:55:37;13.40;80.90
8537;DHT22;4306;50.210;10.628;2023-06-14T01:58:05;13.30;82.00
8537;DHT22;4306;50.210;10.628;2023-06-14T02:00:32;13.20;83.20
8537;DHT22;4306;50.210;10.628;2023-06-14T02:02:59;13.10;82.90
8537;DHT22;4306;50.210;10.628;2023-06-14T02:05:26;13.00;85.40
8537;DHT22;4306;50.210;10.628;2023-06-14T02:07:53;12.80;85.70
8537;DHT22;4306;50.210;10.628;2023-06-14T02:10:20;12.60;88.30
8537;DHT22;4306;50.210;10.628;2023-06-14T02:12:47;12.50;87.40
8537;DHT22;4306;50.210;10.628;2023-06-14T02:15:15;12.40;90.10
8537;DHT22;4306;50.210;10.628;2023-06-14T02:17:45;12.30;90.50
8537;DHT22;4306;50.210;10.628;2023-06-14T02:20:13;12.30;90.80
8537;DHT22;4306;50.210;10.628;2023-06-14T02:22:40;12.20;91.10
8537;DHT22;4306;50.210;10.628;2023-06-14T02:25:08;12.20;91.50
8537;DHT22;4306;50.210;10.628;2023-06-14T02:27:35;12.20;91.30
8537;DHT22;4306;50.210;10.628;2023-06-14T02:30:03;12.30;90.40
8537;DHT22;4306;50.210;10.628;2023-06-14T02:32:32;12.40;90.60
8537;DHT22;4306;50.210;10.628;2023-06-14T02:34:59;12.40;91.00
8537;DHT22;4306;50.210;10.628;2023-06-14T02:37:26;12.40;90.50
8537;DHT22;4306;50.210;10.628;2023-06-14T02:39:53;12.40;90.80
8537;DHT22;4306;50.210;10.628;2023-06-14T02:42:20;12.30;91.20
8537;DHT22;4306;50.210;10.628;2023-06-14T02:44:46;12.40;90.80
8537;DHT22;4306;50.210;10.628;2023-06-14T02:47:16;12.40;90.70
8537;DHT22;4306;50.210;10.628;2023-06-14T02:49:44;12.40;90.80
8537;DHT22;4306;50.210;10.628;2023-06-14T02:52:12;12.40;90.80
8537;DHT22;4306;50.210;10.628;2023-06-14T02:54:39;12.40;90.80
8537;DHT22;4306;50.210;10.628;2023-06-14T02:57:07;12.40;91.20
8537;DHT22;4306;50.210;10.628;2023-06-14T02:59:33;12.30;91.30
8537;DHT22;4306;50.210;10.628;2023-06-14T03:02:00;12.30;91.50
8537;DHT22;4306;50.210;10.628;2023-06-14T03:04:28;12.20;92.80
8537;DHT22;4306;50.210;10.628;2023-06-14T03:07:04;12.20;93.10
8537;DHT22;4306;50.210;10.628;2023-06-14T03:09:35;12.20;93.80
8537;DHT22;4306;50.210;10.628;2023-06-14T03:12:02;12.20;95.20
8537;DHT22;4306;50.210;10.628;2023-06-14T03:14:30;12.20;96.00
8537;DHT22;4306;50.210;10.628;2023-06-14T03:16:57;12.20;96.10
8537;DHT22;4306;50.210;10.628;2023-06-14T03:19:24;12.20;96.60
8537;DHT22;4306;50.210;10.628;2023-06-14T03:21:51;12.10;97.30
8537;DHT22;4306;50.210;10.628;2023-06-14T03:24:20;12.20;97.30
8537;DHT22;4306;50.210;10.628;2023-06-14T03:26:47;12.20;97.00
8537;DHT22;4306;50.210;10.628;2023-06-14T03:29:14;12.30;97.20
8537;DHT22;4306;50.210;10.628;2023-06-14T03:31:57;12.30;96.20
8537;DHT22;4306;50.210;10.628;2023-06-14T03:34:24;12.40;95.80
8537;DHT22;4306;50.210;10.628;2023-06-14T03:36:51;12.50;95.70
8537;DHT22;4306;50.210;10.628;2023-06-14T03:39:20;12.40;96.20
8537;DHT22;4306;50.210;10.628;2023-06-14T03:41:46;12.40;97.30
8537;DHT22;4306;50.210;10.628;2023-06-14T03:44:15;12.10;98.40
8537;DHT22;4306;50.210;10.628;2023-06-14T03:46:43;12.00;98.90
8537;DHT22;4306;50.210;10.628;2023-06-14T03:49:10;12.00;98.80
8537;DHT22;4306;50.210;10.628;2023-06-14T03:51:37;12.00;99.20
8537;DHT22;4306;50.210;10.628;2023-06-14T03:54:05;11.90;99.90
8537;DHT22;4306;50.210;10.628;2023-06-14T03:56:34;11.90;99.90
8537;DHT22;4306;50.210;10.628;2023-06-14T03:59:01;11.90;99.90
8537;DHT22;4306;50.210;10.628;2023-06-14T04:01:28;11.90;99.90
8537;DHT22;4306;50.210;10.628;2023-06-14T04:03:56;12.00;99.90
8537;DHT22;4306;50.210;10.628;2023-06-14T04:06:24;12.10;99.90
8537;DHT22;4306;50.210;10.628;2023-06-14T04:08:57;12.10;99.20
8537;DHT22;4306;50.210;10.628;2023-06-14T04:11:29;12.10;99.70
8537;DHT22;4306;50.210;10.628;2023-06-14T04:13:58;12.30;99.50
8537;DHT22;4306;50.210;10.628;2023-06-14T04:16:25;12.30;99.60
8537;DHT22;4306;50.210;10.628;2023-06-14T04:18:53;12.30;99.50
8537;DHT22;4306;50.210;10.628;2023-06-14T04:21:20;12.30;99.50
8537;DHT22;4306;50.210;10.628;2023-06-14T04:23:49;12.40;99.60
8537;DHT22;4306;50.210;10.628;2023-06-14T04:26:18;12.40;99.30
8537;DHT22;4306;50.210;10.628;2023-06-14T04:28:46;12.40;99.30
8537;DHT22;4306;50.210;10.628;2023-06-14T04:31:14;12.50;99.10
8537;DHT22;4306;50.210;10.628;2023-06-14T04:33:42;12.50;99.20
8537;DHT22;4306;50.210;10.628;2023-06-14T04:36:11;12.60;99.00
8537;DHT22;4306;50.210;10.628;2023-06-14T04:38:38;12.60;99.20
8537;DHT22;4306;50.210;10.628;2023-06-14T04:41:05;12.60;99.20
8537;DHT22;4306;50.210;10.628;2023-06-14T04:43:32;12.70;99.10
8537;DHT22;4306;50.210;10.628;2023-06-14T04:46:03;12.70;99.20
8537;DHT22;4306;50.210;10.628;2023-06-14T04:48:32;12.70;98.80
8537;DHT22;4306;50.210;10.628;2023-06-14T04:50:59;12.80;98.70
8537;DHT22;4306;50.210;10.628;2023-06-14T04:53:26;13.00;98.40
8537;DHT22;4306;50.210;10.628;2023-06-14T04:55:54;13.00;98.70
8537;DHT22;4306;50.210;10.628;2023-06-14T04:58:21;13.10;98.10
8537;DHT22;4306;50.210;10.628;2023-06-14T05:00:48;13.10;97.70
8537;DHT22;4306;50.210;10.628;2023-06-14T05:03:15;13.20;98.00
8537;DHT22;4306;50.210;10.628;2023-06-14T05:05:45;13.30;98.00
8537;DHT22;4306;50.210;10.628;2023-06-14T05:08:12;13.30;97.70
8537;DHT22;4306;50.210;10.628;2023-06-14T05:10:39;13.40;97.40
8537;DHT22;4306;50.210;10.628;2023-06-14T05:13:06;13.40;97.90
8537;DHT22;4306;50.210;10.628;2023-06-14T05:15:33;13.50;97.50
8537;DHT22;4306;50.210;10.628;2023-06-14T05:18:00;13.50;97.50
8537;DHT22;4306;50.210;10.628;2023-06-14T05:20:26;13.60;98.00
8537;DHT22;4306;50.210;10.628;2023-06-14T05:22:55;13.70;97.20
8537;DHT22;4306;50.210;10.628;2023-06-14T05:25:22;13.80;97.10
8537;DHT22;4306;50.210;10.628;2023-06-14T05:27:49;13.90;97.00
8537;DHT22;4306;50.210;10.628;2023-06-14T05:30:16;14.00;96.80
8537;DHT22;4306;50.210;10.628;2023-06-14T05:32:43;14.00;96.60
8537;DHT22;4306;50.210;10.628;2023-06-14T05:35:10;14.10;96.50
8537;DHT22;4306;50.210;10.628;2023-06-14T05:37:37;14.20;95.90
8537;DHT22;4306;50.210;10.628;2023-06-14T05:40:06;14.20;95.60
8537;DHT22;4306;50.210;10.628;2023-06-14T05:42:34;14.30;95.60
8537;DHT22;4306;50.210;10.628;2023-06-14T05:45:01;14.40;95.70
8537;DHT22;4306;50.210;10.628;2023-06-14T05:47:28;14.50;95.70
8537;DHT22;4306;50.210;10.628;2023-06-14T05:49:54;14.50;94.70
8537;DHT22;4306;50.210;10.628;2023-06-14T05:52:21;14.60;94.80
8537;DHT22;4306;50.210;10.628;2023-06-14T05:54:48;14.70;95.30
8537;DHT22;4306;50.210;10.628;2023-06-14T05:57:16;14.80;94.60
8537;DHT22;4306;50.210;10.628;2023-06-14T05:59:43;14.80;94.40
8537;DHT22;4306;50.210;10.628;2023-06-14T06:02:10;14.90;94.40
8537;DHT22;4306;50.210;10.628;2023-06-14T06:04:37;15.00;93.90
8537;DHT22;4306;50.210;10.628;2023-06-14T06:07:04;15.10;93.40
8537;DHT22;4306;50.210;10.628;2023-06-14T06:09:32;15.30;93.00
8537;DHT22;4306;50.210;10.628;2023-06-14T06:11:59;15.60;93.40
8537;DHT22;4306;50.210;10.628;2023-06-14T06:14:27;15.90;91.90
8537;DHT22;4306;50.210;10.628;2023-06-14T06:16:54;16.20;91.50
8537;DHT22;4306;50.210;10.628;2023-06-14T06:19:21;16.80;91.10
8537;DHT22;4306;50.210;10.628;2023-06-14T06:21:48;17.50;90.70
8537;DHT22;4306;50.210;10.628;2023-06-14T06:24:15;18.10;85.10
8537;DHT22;4306;50.210;10.628;2023-06-14T06:26:42;18.60;84.00
8537;DHT22;4306;50.210;10.628;2023-06-14T06:29:08;18.90;80.20
8537;DHT22;4306;50.210;10.628;2023-06-14T06:31:37;18.70;80.10
8537;DHT22;4306;50.210;10.628;2023-06-14T06:34:04;18.50;80.60
8537;DHT22;4306;50.210;10.628;2023-06-14T06:36:30;18.60;80.00
8537;DHT22;4306;50.210;10.628;2023-06-14T06:38:57;18.30;80.20
8537;DHT22;4306;50.210;10.628;2023-06-14T06:41:24;17.80;80.40
8537;DHT22;4306;50.210;10.628;2023-06-14T06:43:51;17.70;81.60
8537;DHT22;4306;50.210;10.628;2023-06-14T06:46:18;17.70;82.50
8537;DHT22;4306;50.210;10.628;2023-06-14T06:48:46;17.60;80.90
8537;DHT22;4306;50.210;10.628;2023-06-14T06:51:13;17.70;80.70
8537;DHT22;4306;50.210;10.628;2023-06-14T06:53:42;17.60;80.50
8537;DHT22;4306;50.210;10.628;2023-06-14T06:56:08;17.60;81.20
8537;DHT22;4306;50.210;10.628;2023-06-14T06:58:35;17.60;81.20
8537;DHT22;4306;50.210;10.628;2023-06-14T07:01:02;17.40;81.50
8537;DHT22;4306;50.210;10.628;2023-06-14T07:03:29;17.50;82.50
8537;DHT22;4306;50.210;10.628;2023-06-14T07:05:57;17.60;82.30
8537;DHT22;4306;50.210;10.628;2023-06-14T07:08:25;17.70;80.90
8537;DHT22;4306;50.210;10.628;2023-06-14T07:10:52;17.60;81.20
8537;DHT22;4306;50.210;10.628;2023-06-14T07:13:19;17.70;81.20
8537;DHT22;4306;50.210;10.628;2023-06-14T07:15:46;17.80;81.00
8537;DHT22;4306;50.210;10.628;2023-06-14T07:18:13;17.80;80.70
8537;DHT22;4306;50.210;10.628;2023-06-14T07:20:40;17.90;80.70
8537;DHT22;4306;50.210;10.628;2023-06-14T07:23:09;17.90;79.60
8537;DHT22;4306;50.210;10.628;2023-06-14T07:25:36;18.00;80.30
8537;DHT22;4306;50.210;10.628;2023-06-14T07:28:03;17.90;79.40
8537;DHT22;4306;50.210;10.628;2023-06-14T07:30:30;17.90;78.90
8537;DHT22;4306;50.210;10.628;2023-06-14T07:32:57;18.00;78.70
8537;DHT22;4306;50.210;10.628;2023-06-14T07:35:24;18.10;79.20
8537;DHT22;4306;50.210;10.628;2023-06-14T07:37:51;18.20;79.30
8537;DHT22;4306;50.210;10.628;2023-06-14T07:40:19;18.20;77.80
8537;DHT22;4306;50.210;10.628;2023-06-14T07:42:46;18.30;77.80
8537;DHT22;4306;50.210;10.628;2023-06-14T07:45:15;18.30;77.60
8537;DHT22;4306;50.210;10.628;2023-06-14T07:47:42;18.30;77.60
8537;DHT22;4306;50.210;10.628;2023-06-14T07:50:09;18.20;76.60
8537;DHT22;4306;50.210;10.628;2023-06-14T07:52:37;18.30;76.90
8537;DHT22;4306;50.210;10.628;2023-06-14T07:55:04;18.30;77.40
8537;DHT22;4306;50.210;10.628;2023-06-14T07:57:33;18.30;77.60
8537;DHT22;4306;50.210;10.628;2023-06-14T08:00:00;18.40;76.90
8537;DHT22;4306;50.210;10.628;2023-06-14T08:02:27;18.60;77.90
8537;DHT22;4306;50.210;10.628;2023-06-14T08:04:54;18.90;77.30
8537;DHT22;4306;50.210;10.628;2023-06-14T08:07:21;18.80;76.50
8537;DHT22;4306;50.210;10.628;2023-06-14T08:09:48;18.90;75.90
8537;DHT22;4306;50.210;10.628;2023-06-14T08:12:15;19.00;75.30
8537;DHT22;4306;50.210;10.628;2023-06-14T08:14:43;19.00;75.50
8537;DHT22;4306;50.210;10.628;2023-06-14T08:17:10;19.10;75.20
8537;DHT22;4306;50.210;10.628;2023-06-14T08:19:37;19.00;75.20
8537;DHT22;4306;50.210;10.628;2023-06-14T08:22:04;19.10;74.90
8537;DHT22;4306;50.210;10.628;2023-06-14T08:24:31;19.00;74.40
8537;DHT22;4306;50.210;10.628;2023-06-14T08:26:58;19.20;75.50
8537;DHT22;4306;50.210;10.628;2023-06-14T08:29:26;19.20;74.10
8537;DHT22;4306;50.210;10.628;2023-06-14T08:31:58;19.10;73.40
8537;DHT22;4306;50.210;10.628;2023-06-14T08:34:24;19.20;74.20
8537;DHT22;4306;50.210;10.628;2023-06-14T08:36:51;19.30;74.10
8537;DHT22;4306;50.210;10.628;2023-06-14T08:39:18;19.30;74.00
8537;DHT22;4306;50.210;10.628;2023-06-14T08:41:46;19.30;73.50
8537;DHT22;4306;50.210;10.628;2023-06-14T08:44:14;19.40;73.80
8537;DHT22;4306;50.210;10.628;2023-06-14T08:46:42;19.50;72.40
8537;DHT22;4306;50.210;10.628;2023-06-14T08:49:11;19.70;73.00
8537;DHT22;4306;50.210;10.628;2023-06-14T08:51:38;19.80;71.90
8537;DHT22;4306;50.210;10.628;2023-06-14T08:54:06;19.80;71.80
8537;DHT22;4306;50.210;10.628;2023-06-14T08:56:33;20.00;72.50
8537;DHT22;4306;50.210;10.628;2023-06-14T08:59:01;20.00;71.00
8537;DHT22;4306;50.210;10.628;2023-06-14T09:01:32;20.00;70.50
8537;DHT22;4306;50.210;10.628;2023-06-14T09:04:00;20.00;68.60
8537;DHT22;4306;50.210;10.628;2023-06-14T09:06:29;19.80;66.40
8537;DHT22;4306;50.210;10.628;2023-06-14T09:08:56;19.80;68.40
8537;DHT22;4306;50.210;10.628;2023-06-14T09:11:23;20.00;69.80
8537;DHT22;4306;50.210;10.628;2023-06-14T09:13:52;19.90;69.80
8537;DHT22;4306;50.210;10.628;2023-06-14T09:16:19;19.80;70.10
8537;DHT22;4306;50.210;10.628;2023-06-14T09:18:47;20.10;70.60
8537;DHT22;4306;50.210;10.628;2023-06-14T09:21:15;19.90;67.60
8537;DHT22;4306;50.210;10.628;2023-06-14T09:23:44;20.10;69.90
8537;DHT22;4306;50.210;10.628;2023-06-14T09:26:13;20.20;68.00
8537;DHT22;4306;50.210;10.628;2023-06-14T09:28:43;20.30;68.00
8537;DHT22;4306;50.210;10.628;2023-06-14T09:31:11;20.20;67.90
8537;DHT22;4306;50.210;10.628;2023-06-14T09:33:38;20.40;67.00
8537;DHT22;4306;50.210;10.628;2023-06-14T09:36:10;20.40;64.30
8537;DHT22;4306;50.210;10.628;2023-06-14T09:38:40;20.40;65.40
8537;DHT22;4306;50.210;10.628;2023-06-14T09:41:08;20.50;66.80
8537;DHT22;4306;50.210;10.628;2023-06-14T09:43:35;20.60;66.50
8537;DHT22;4306;50.210;10.628;2023-06-14T09:46:03;20.70;67.10
8537;DHT22;4306;50.210;10.628;2023-06-14T09:48:31;20.90;65.40
8537;DHT22;4306;50.210;10.628;2023-06-14T09:50:58;21.10;62.00
8537;DHT22;4306;50.210;10.628;2023-06-14T09:53:26;21.10;63.10
8537;DHT22;4306;50.210;10.628;2023-06-14T09:55:55;21.10;61.60
8537;DHT22;4306;50.210;10.628;2023-06-14T09:58:26;21.20;64.10
8537;DHT22;4306;50.210;10.628;2023-06-14T10:00:55;21.20;62.30
8537;DHT22;4306;50.210;10.628;2023-06-14T10:03:25;21.30;63.90
8537;DHT22;4306;50.210;10.628;2023-06-14T10:05:55;21.50;63.20
8537;DHT22;4306;50.210;10.628;2023-06-14T10:08:27;21.70;62.80
8537;DHT22;4306;50.210;10.628;2023-06-14T10:10:58;21.80;62.70
8537;DHT22;4306;50.210;10.628;2023-06-14T10:13:29;21.90;62.20
8537;DHT22;4306;50.210;10.628;2023-06-14T10:16:04;22.00;61.10
8537;DHT22;4306;50.210;10.628;2023-06-14T10:18:39;22.20;61.20
8537;DHT22;4306;50.210;10.628;2023-06-14T10:21:21;22.20;58.40
8537;DHT22;4306;50.210;10.628;2023-06-14T10:23:50;22.30;58.60
8537;DHT22;4306;50.210;10.628;2023-06-14T10:26:20;22.30;57.60
8537;DHT22;4306;50.210;10.628;2023-06-14T10:28:59;22.40;59.20
8537;DHT22;4306;50.210;10.628;2023-06-14T10:31:48;22.30;59.90
8537;DHT22;4306;50.210;10.628;2023-06-14T10:34:22;22.40;59.20
8537;DHT22;4306;50.210;10.628;2023-06-14T10:37:05;22.30;58.50
8537;DHT22;4306;50.210;10.628;2023-06-14T10:39:39;22.30;58.20
8537;DHT22;4306;50.210;10.628;2023-06-14T10:42:06;22.40;58.90
8537;DHT22;4306;50.210;10.628;2023-06-14T10:44:38;22.30;59.10
8537;DHT22;4306;50.210;10.628;2023-06-14T10:47:27;22.10;57.60
8537;DHT22;4306;50.210;10.628;2023-06-14T10:49:55;22.00;57.30
8537;DHT22;4306;50.210;10.628;2023-06-14T10:52:27;22.30;59.70
8537;DHT22;4306;50.210;10.628;2023-06-14T10:55:08;22.20;58.80
8537;DHT22;4306;50.210;10.628;2023-06-14T10:57:42;22.20;60.40
8537;DHT22;4306;50.210;10.628;2023-06-14T11:00:11;22.00;58.90
8537;DHT22;4306;50.210;10.628;2023-06-14T11:03:07;22.20;57.90
8537;DHT22;4306;50.210;10.628;2023-06-14T11:05:49;22.50;58.40
8537;DHT22;4306;50.210;10.628;2023-06-14T11:08:53;22.80;57.30
8537;DHT22;4306;50.210;10.628;2023-06-14T11:11:30;22.80;56.30
8537;DHT22;4306;50.210;10.628;2023-06-14T11:14:00;22.80;58.30
8537;DHT22;4306;50.210;10.628;2023-06-14T11:16:29;22.60;57.60
8537;DHT22;4306;50.210;10.628;2023-06-14T11:19:00;22.90;56.90
8537;DHT22;4306;50.210;10.628;2023-06-14T11:21:28;23.20;55.10
8537;DHT22;4306;50.210;10.628;2023-06-14T11:23:57;23.10;54.20
8537;DHT22;4306;50.210;10.628;2023-06-14T11:26:27;23.00;55.00
8537;DHT22;4306;50.210;10.628;2023-06-14T11:28:59;23.10;55.60
8537;DHT22;4306;50.210;10.628;2023-06-14T11:31:29;23.10;55.40
8537;DHT22;4306;50.210;10.628;2023-06-14T11:33:57;22.80;55.40
8537;DHT22;4306;50.210;10.628;2023-06-14T11:36:28;22.50;57.60
8537;DHT22;4306;50.210;10.628;2023-06-14T11:38:58;22.60;58.20
8537;DHT22;4306;50.210;10.628;2023-06-14T11:41:31;22.60;58.00
8537;DHT22;4306;50.210;10.628;2023-06-14T11:44:00;22.50;59.10
8537;DHT22;4306;50.210;10.628;2023-06-14T11:46:30;22.50;58.40
8537;DHT22;4306;50.210;10.628;2023-06-14T11:48:57;22.70;58.50
8537;DHT22;4306;50.210;10.628;2023-06-14T11:51:24;22.60;57.20
8537;DHT22;4306;50.210;10.628;2023-06-14T11:53:51;22.40;57.70
8537;DHT22;4306;50.210;10.628;2023-06-14T11:56:18;22.20;58.70
8537;DHT22;4306;50.210;10.628;2023-06-14T11:58:46;22.50;58.60
8537;DHT22;4306;50.210;10.628;2023-06-14T12:01:16;22.50;58.10
8537;DHT22;4306;50.210;10.628;2023-06-14T12:03:49;22.80;58.40
8537;DHT22;4306;50.210;10.628;2023-06-14T12:06:24;22.70;57.10
8537;DHT22;4306;50.210;10.628;2023-06-14T12:08:55;22.80;57.80
8537;DHT22;4306;50.210;10.628;2023-06-14T12:11:22;22.80;57.20
8537;DHT22;4306;50.210;10.628;2023-06-14T12:13:49;23.20;58.80
8537;DHT22;4306;50.210;10.628;2023-06-14T12:16:16;23.00;57.00
8537;DHT22;4306;50.210;10.628;2023-06-14T12:18:43;23.10;58.00
8537;DHT22;4306;50.210;10.628;2023-06-14T12:21:12;22.90;56.90
8537;DHT22;4306;50.210;10.628;2023-06-14T12:23:43;22.60;57.00
8537;DHT22;4306;50.210;10.628;2023-06-14T12:26:12;22.70;57.90
8537;DHT22;4306;50.210;10.628;2023-06-14T12:28:41;23.20;58.50
8537;DHT22;4306;50.210;10.628;2023-06-14T12:31:08;23.50;57.20
8537;DHT22;4306;50.210;10.628;2023-06-14T12:33:35;23.50;56.50
8537;DHT22;4306;50.210;10.628;2023-06-14T12:36:04;23.40;55.30
8537;DHT22;4306;50.210;10.628;2023-06-14T12:38:32;23.20;55.90
8537;DHT22;4306;50.210;10.628;2023-06-14T12:40:59;23.30;56.50
8537;DHT22;4306;50.210;10.628;2023-06-14T12:43:26;23.50;55.00
8537;DHT22;4306;50.210;10.628;2023-06-14T12:45:53;23.30;54.60
8537;DHT22;4306;50.210;10.628;2023-06-14T12:48:20;23.30;55.20
8537;DHT22;4306;50.210;10.628;2023-06-14T12:50:47;23.30;55.70
8537;DHT22;4306;50.210;10.628;2023-06-14T12:53:14;23.20;55.20
8537;DHT22;4306;50.210;10.628;2023-06-14T12:55:42;23.10;55.10
8537;DHT22;4306;50.210;10.628;2023-06-14T12:58:09;23.10;55.20
8537;DHT22;4306;50.210;10.628;2023-06-14T13:00:38;23.00;53.90
8537;DHT22;4306;50.210;10.628;2023-06-14T13:03:04;22.90;54.90
8537;DHT22;4306;50.210;10.628;2023-06-14T13:05:31;23.10;54.80
8537;DHT22;4306;50.210;10.628;2023-06-14T13:07:59;23.40;54.70
8537;DHT22;4306;50.210;10.628;2023-06-14T13:10:26;23.60;55.40
8537;DHT22;4306;50.210;10.628;2023-06-14T13:12:54;23.80;54.10
8537;DHT22;4306;50.210;10.628;2023-06-14T13:15:23;24.00;53.40
8537;DHT22;4306;50.210;10.628;2023-06-14T13:17:50;24.00;53.80
8537;DHT22;4306;50.210;10.628;2023-06-14T13:20:17;23.90;53.50
8537;DHT22;4306;50.210;10.628;2023-06-14T13:22:44;24.20;54.00
8537;DHT22;4306;50.210;10.628;2023-06-14T13:25:10;24.40;53.10
8537;DHT22;4306;50.210;10.628;2023-06-14T13:27:37;24.60;53.10
8537;DHT22;4306;50.210;10.628;2023-06-14T13:30:07;24.80;53.20
8537;DHT22;4306;50.210;10.628;2023-06-14T13:32:34;24.50;52.80
8537;DHT22;4306;50.210;10.628;2023-06-14T13:35:01;24.70;52.80
8537;DHT22;4306;50.210;10.628;2023-06-14T13:37:29;24.70;51.60
8537;DHT22;4306;50.210;10.628;2023-06-14T13:39:56;24.80;51.80
8537;DHT22;4306;50.210;10.628;2023-06-14T13:42:23;24.60;51.60
8537;DHT22;4306;50.210;10.628;2023-06-14T13:44:50;24.90;53.00
8537;DHT22;4306;50.210;10.628;2023-06-14T13:47:19;25.00;51.90
8537;DHT22;4306;50.210;10.628;2023-06-14T13:49:46;25.10;52.70
8537;DHT22;4306;50.210;10.628;2023-06-14T13:52:13;25.00;51.10
8537;DHT22;4306;50.210;10.628;2023-06-14T13:54:40;24.70;51.10
8537;DHT22;4306;50.210;10.628;2023-06-14T13:57:07;25.00;52.90
8537;DHT22;4306;50.210;10.628;2023-06-14T13:59:34;25.30;52.50
8537;DHT22;4306;50.210;10.628;2023-06-14T14:02:01;25.40;50.80
8537;DHT22;4306;50.210;10.628;2023-06-14T14:04:30;25.40;51.10
8537;DHT22;4306;50.210;10.628;2023-06-14T14:06:57;25.20;49.80
8537;DHT22;4306;50.210;10.628;2023-06-14T14:09:24;24.50;51.10
8537;DHT22;4306;50.210;10.628;2023-06-14T14:11:51;24.70;51.70
8537;DHT22;4306;50.210;10.628;2023-06-14T14:14:17;24.70;51.00
8537;DHT22;4306;50.210;10.628;2023-06-14T14:16:44;24.40;50.80
8537;DHT22;4306;50.210;10.628;2023-06-14T14:19:11;24.50;50.80
8537;DHT22;4306;50.210;10.628;2023-06-14T14:21:39;24.40;51.20
8537;DHT22;4306;50.210;10.628;2023-06-14T14:24:06;24.30;50.50
8537;DHT22;4306;50.210;10.628;2023-06-14T14:26:33;24.00;51.50
8537;DHT22;4306;50.210;10.628;2023-06-14T14:29:00;24.10;52.10
8537;DHT22;4306;50.210;10.628;2023-06-14T14:31:28;24.40;52.00
8537;DHT22;4306;50.210;10.628;2023-06-14T14:33:54;24.50;51.60
8537;DHT22;4306;50.210;10.628;2023-06-14T14:36:21;24.70;52.10
8537;DHT22;4306;50.210;10.628;2023-06-14T14:38:50;24.60;51.20
8537;DHT22;4306;50.210;10.628;2023-06-14T14:41:17;24.50;51.10
8537;DHT22;4306;50.210;10.628;2023-06-14T14:43:44;24.10;50.90
8537;DHT22;4306;50.210;10.628;2023-06-14T14:46:11;24.00;52.00
8537;DHT22;4306;50.210;10.628;2023-06-14T14:48:38;23.80;51.70
8537;DHT22;4306;50.210;10.628;2023-06-14T14:51:04;23.90;52.30
8537;DHT22;4306;50.210;10.628;2023-06-14T14:53:31;23.40;52.20
8537;DHT22;4306;50.210;10.628;2023-06-14T14:56:00;23.40;52.70
8537;DHT22;4306;50.210;10.628;2023-06-14T14:58:26;23.30;53.20
8537;DHT22;4306;50.210;10.628;2023-06-14T15:00:53;23.40;52.90
8537;DHT22;4306;50.210;10.628;2023-06-14T15:03:20;23.40;53.40
8537;DHT22;4306;50.210;10.628;2023-06-14T15:05:47;23.70;52.70
8537;DHT22;4306;50.210;10.628;2023-06-14T15:08:14;23.80;52.90
8537;DHT22;4306;50.210;10.628;2023-06-14T15:10:41;24.00;53.00
8537;DHT22;4306;50.210;10.628;2023-06-14T15:13:10;24.00;51.50
8537;DHT22;4306;50.210;10.628;2023-06-14T15:15:37;24.00;51.50
8537;DHT22;4306;50.210;10.628;2023-06-14T15:18:04;23.80;51.40
8537;DHT22;4306;50.210;10.628;2023-06-14T15:20:30;24.00;52.60
8537;DHT22;4306;50.210;10.628;2023-06-14T15:22:57;24.10;52.00
8537;DHT22;4306;50.210;10.628;2023-06-14T15:25:26;23.80;51.00
8537;DHT22;4306;50.210;10.628;2023-06-14T15:27:52;23.60;51.30
8537;DHT22;4306;50.210;10.628;2023-06-14T15:30:21;23.40;51.60
8537;DHT22;4306;50.210;10.628;2023-06-14T15:32:48;23.40;52.20
8537;DHT22;4306;50.210;10.628;2023-06-14T15:35:16;23.40;51.90
8537;DHT22;4306;50.210;10.628;2023-06-14T15:37:44;23.60;52.30
8537;DHT22;4306;50.210;10.628;2023-06-14T15:40:11;23.70;51.50
8537;DHT22;4306;50.210;10.628;2023-06-14T15:42:38;23.90;52.30
8537;DHT22;4306;50.210;10.628;2023-06-14T15:45:05;24.10;52.50
8537;DHT22;4306;50.210;10.628;2023-06-14T15:47:34;24.20;51.80
8537;DHT22;4306;50.210;10.628;2023-06-14T15:50:01;24.30;51.30
8537;DHT22;4306;50.210;10.628;2023-06-14T15:52:30;24.40;50.50